Terminal Aerodrome Forecast
Issued by NWS

Home | Current Version | Previous Version | Text Only | Print | Product List | Glossary On
Versions: 1 2 3 4 5 6 7 8 9 10 11 12 13
000
FTAK31 PAJN 011700
TAFAYA
TAF
PAYA 011722Z 0118/0218 29004KT P6SM OVC080
     FM012100 31004KT P6SM SCT080 BKN100
     FM020400 VRB03KT 5SM BR FEW005 SCT100
     FM020900 00000KT 1SM BR SCT005 SCT100
     FM021400 12003KT 5SM BR FEW005 BKN100
      AMD LTD TO CLD VIS AND WIND 0201/0210=

USA.gov is the U.S. government's official web portal to all federal, state and local government web resources and services.